Time;durP1;ratioP1;P1;durP2;ratioP2;P2;SDS_P1;SDS_P2;PMS_P1;PMS_P2;Temp;Humidity;BMP_temperature;BMP_pressure;BME280_temperature;BME280_humidity;BME280_pressure;Samples;Min_cycle;Max_cycle;Signal;HPM_P1;HPM_P2
2021/12/11 00:00:52;;;;;;;26.48;12.30;;;-2.20;99.90;;;;;;5068743;28;20083;-38
2021/12/11 00:03:23;;;;;;;85.30;16.25;;;-2.10;99.90;;;;;;5064237;28;20479;-38
2021/12/11 00:05:58;;;;;;;29.90;14.63;;;-2.20;99.90;;;;;;5054041;28;20129;-38
2021/12/11 00:08:28;;;;;;;117.20;17.00;;;-2.20;99.90;;;;;;5055356;28;20091;-38
2021/12/11 00:10:57;;;;;;;60.30;15.95;;;-2.30;99.90;;;;;;5048250;28;20045;-39
2021/12/11 00:13:27;;;;;;;196.35;24.30;;;-2.40;99.90;;;;;;5063016;28;20029;-38
2021/12/11 00:15:54;;;;;;;46.45;16.20;;;-2.30;99.90;;;;;;5063651;28;20040;-38
2021/12/11 00:18:24;;;;;;;41.73;16.13;;;-2.30;99.90;;;;;;5080734;28;20049;-38
2021/12/11 00:21:12;;;;;;;101.05;20.17;;;-2.20;99.90;;;;;;5082010;28;20130;-38
2021/12/11 00:23:43;;;;;;;44.33;16.40;;;-2.30;99.90;;;;;;5048009;28;20045;-38
2021/12/11 00:26:12;;;;;;;68.97;16.90;;;-2.40;99.90;;;;;;5049208;28;20883;-38
2021/12/11 00:28:47;;;;;;;60.80;16.38;;;-2.40;99.90;;;;;;5015259;28;20049;-38
2021/12/11 00:31:15;;;;;;;30.58;16.25;;;-2.40;99.90;;;;;;5049248;28;20503;-38
2021/12/11 00:33:41;;;;;;;37.78;18.35;;;-2.30;99.90;;;;;;5064638;28;20060;-38
2021/12/11 00:36:14;;;;;;;35.13;16.55;;;-2.50;99.90;;;;;;5047537;28;20079;-38
2021/12/11 00:38:41;;;;;;;39.53;15.00;;;-2.50;99.90;;;;;;5049174;28;20290;-38
2021/12/11 00:41:11;;;;;;;25.67;13.73;;;-2.50;99.90;;;;;;5045680;28;20044;-39
2021/12/11 00:43:40;;;;;;;27.92;13.82;;;-2.60;99.90;;;;;;5049262;28;20390;-38
2021/12/11 00:46:09;;;;;;;31.73;14.95;;;-2.50;99.90;;;;;;5047589;28;20053;-38
2021/12/11 00:48:37;;;;;;;45.47;16.05;;;-2.40;99.90;;;;;;5047594;28;20618;-38
2021/12/11 00:51:06;;;;;;;;;;;-2.50;99.90;;;;;;5049226;28;20081;-38
2021/12/11 00:53:37;;;;;;;24.38;14.02;;;-2.50;99.90;;;;;;5047240;28;20015;-38
2021/12/11 00:56:11;;;;;;;28.83;15.80;;;-2.50;99.90;;;;;;5031181;28;20200;-38
2021/12/11 00:58:39;;;;;;;28.80;15.70;;;;;;;;;;5030927;28;20518;-38
2021/12/11 01:01:14;;;;;;;35.45;19.30;;;-2.50;99.90;;;;;;5054587;28;20050;-39
2021/12/11 01:03:57;;;;;;;36.50;17.25;;;-2.50;99.90;;;;;;5056817;28;20037;-38
2021/12/11 01:06:32;;;;;;;40.83;19.80;;;-2.50;99.90;;;;;;5041563;28;20052;-38
2021/12/11 01:09:12;;;;;;;36.92;18.40;;;-2.40;99.90;;;;;;5048571;28;20475;-38
2021/12/11 01:11:48;;;;;;;31.73;16.77;;;-2.40;99.90;;;;;;5081342;28;20049;-39
2021/12/11 01:14:27;;;;;;;33.03;16.17;;;-2.40;99.90;;;;;;5050088;28;20048;-38
2021/12/11 01:17:03;;;;;;;;;;;-2.40;99.90;;;;;;5051699;28;20370;-38
2021/12/11 01:19:36;;;;;;;30.83;15.63;;;-2.40;99.90;;;;;;5054920;28;19926;-38
2021/12/11 01:22:20;;;;;;;32.88;17.58;;;-2.50;99.90;;;;;;5047953;28;20048;-38
2021/12/11 01:24:51;;;;;;;33.55;16.95;;;-2.40;99.90;;;;;;5047309;28;20642;-38
2021/12/11 01:27:23;;;;;;;29.15;14.45;;;-2.50;99.90;;;;;;5050765;28;20037;-38
2021/12/11 01:29:51;;;;;;;27.83;14.63;;;-2.50;99.90;;;;;;5051179;28;20124;-38
2021/12/11 01:32:17;;;;;;;23.65;12.75;;;-2.40;99.90;;;;;;5068452;28;20044;-38
2021/12/11 01:34:45;;;;;;;32.80;14.68;;;-2.40;99.90;;;;;;5052951;28;20053;-38
2021/12/11 01:37:11;;;;;;;28.60;14.18;;;-2.40;99.90;;;;;;5051208;28;20475;-38
2021/12/11 01:39:40;;;;;;;24.83;14.38;;;-2.40;99.90;;;;;;5034936;28;20072;-39
2021/12/11 01:42:09;;;;;;;35.45;17.35;;;-2.40;99.90;;;;;;5084379;28;20091;-39
2021/12/11 01:44:38;;;;;;;34.25;15.75;;;-2.40;99.90;;;;;;5051506;28;20048;-39
2021/12/11 01:47:09;;;;;;;28.40;15.13;;;-2.40;99.90;;;;;;5034480;28;20040;-38
2021/12/11 01:49:37;;;;;;;31.52;16.33;;;-2.30;99.90;;;;;;5043372;28;20044;-38
2021/12/11 01:52:16;;;;;;;35.30;16.00;;;-2.30;99.90;;;;;;5055855;28;20079;-39
2021/12/11 01:54:45;;;;;;;31.40;15.98;;;-2.30;99.90;;;;;;5034808;28;20114;-38
2021/12/11 01:57:17;;;;;;;27.60;15.05;;;-2.30;99.90;;;;;;5070195;28;20130;-39
2021/12/11 01:59:53;;;;;;;32.30;14.98;;;-2.40;99.90;;;;;;5072259;28;20441;-38
2021/12/11 02:02:25;;;;;;;26.67;15.00;;;-2.40;99.90;;;;;;5064532;28;20047;-38
2021/12/11 02:04:55;;;;;;;30.90;15.07;;;-2.40;99.90;;;;;;5069098;28;20056;-38
2021/12/11 02:07:29;;;;;;;27.40;14.10;;;-2.50;99.90;;;;;;5054678;28;20075;-38
2021/12/11 02:09:57;;;;;;;30.15;15.65;;;-2.50;99.90;;;;;;5071993;28;20513;-40
2021/12/11 02:12:38;;;;;;;31.05;15.80;;;-2.60;99.90;;;;;;5070132;28;20056;-39
2021/12/11 02:15:18;;;;;;;26.58;13.38;;;-2.60;99.90;;;;;;5071350;28;20044;-38
2021/12/11 02:17:48;;;;;;;22.38;13.30;;;-2.70;99.90;;;;;;5071112;28;20356;-38
2021/12/11 02:20:20;;;;;;;27.38;14.70;;;-2.80;99.90;;;;;;5033968;28;20048;-38
2021/12/11 02:22:48;;;;;;;26.13;13.68;;;-2.80;99.90;;;;;;5052093;28;20045;-38
2021/12/11 02:25:21;;;;;;;27.02;14.52;;;-2.80;99.90;;;;;;5050812;28;20036;-38
2021/12/11 02:28:08;;;;;;;29.92;15.45;;;-2.80;99.90;;;;;;5051919;28;20041;-38
2021/12/11 02:30:46;;;;;;;31.23;15.60;;;-2.80;99.90;;;;;;5050319;28;20133;-38
2021/12/11 02:33:16;;;;;;;;;;;-2.70;99.90;;;;;;5050695;28;20106;-38
2021/12/11 02:35:57;;;;;;;28.88;14.75;;;-2.80;99.90;;;;;;5051892;28;19929;-38
2021/12/11 02:38:35;;;;;;;28.83;14.43;;;-2.70;99.90;;;;;;5051585;28;20507;-38
2021/12/11 02:41:41;;;;;;;27.23;13.82;;;-2.70;99.90;;;;;;5050382;28;20602;-38
2021/12/11 02:44:17;;;;;;;26.23;13.43;;;-2.70;99.90;;;;;;5051329;28;20531;-38
2021/12/11 02:46:45;;;;;;;28.77;13.65;;;;;;;;;;5077533;28;20040;-38
2021/12/11 02:49:17;;;;;;;26.25;14.35;;;-2.70;99.90;;;;;;5036369;28;20045;-38
2021/12/11 02:52:09;;;;;;;24.40;13.60;;;-2.70;99.90;;;;;;5051744;28;20036;-38
2021/12/11 02:54:59;;;;;;;25.48;13.75;;;-2.70;99.90;;;;;;5023001;28;20056;-38
2021/12/11 02:57:31;;;;;;;23.42;13.80;;;-2.60;99.90;;;;;;5051480;28;20069;-38
2021/12/11 03:00:12;;;;;;;27.48;14.65;;;-2.60;99.90;;;;;;5051211;28;20091;-38
2021/12/11 03:02:44;;;;;;;28.65;14.38;;;-2.60;99.90;;;;;;5056778;28;20043;-38
2021/12/11 03:05:14;;;;;;;27.08;15.02;;;-2.50;99.90;;;;;;5084568;28;20055;-38
2021/12/11 03:07:44;;;;;;;27.00;13.45;;;-2.50;99.90;;;;;;5044878;28;20041;-38
2021/12/11 03:10:14;;;;;;;32.30;15.75;;;-2.40;99.90;;;;;;5057799;28;20055;-38
2021/12/11 03:12:41;;;;;;;34.83;16.33;;;-2.40;99.90;;;;;;5049774;28;20049;-38
2021/12/11 03:15:08;;;;;;;33.88;16.10;;;-2.30;99.90;;;;;;5049790;28;20037;-38
2021/12/11 03:17:35;;;;;;;34.08;16.13;;;-2.30;99.90;;;;;;5033431;28;20115;-38
2021/12/11 03:20:02;;;;;;;30.77;16.02;;;-2.30;99.90;;;;;;5049884;28;20119;-38
2021/12/11 03:22:33;;;;;;;31.38;16.92;;;-2.30;99.90;;;;;;5033227;28;20115;-38
2021/12/11 03:25:05;;;;;;;32.05;17.13;;;-2.30;99.90;;;;;;5049489;28;20073;-38
2021/12/11 03:27:30;;;;;;;31.05;15.88;;;-2.30;99.90;;;;;;5050960;28;20080;-38
2021/12/11 03:29:56;;;;;;;32.58;16.00;;;-2.30;99.90;;;;;;5051029;28;20061;-39
2021/12/11 03:32:23;;;;;;;28.13;15.88;;;-2.30;99.90;;;;;;5032689;28;20510;-38
2021/12/11 03:34:49;;;;;;;31.23;15.85;;;-2.30;99.90;;;;;;5032887;28;20353;-38
2021/12/11 03:37:17;;;;;;;27.60;14.63;;;-2.30;99.90;;;;;;5050774;28;20033;-38
2021/12/11 03:39:47;;;;;;;24.23;13.43;;;-2.30;99.90;;;;;;5050661;28;20087;-39
2021/12/11 03:42:24;;;;;;;26.60;12.70;;;-2.40;99.90;;;;;;5050611;28;20134;-39
2021/12/11 03:44:51;;;;;;;28.38;14.35;;;-2.40;99.90;;;;;;5050920;28;20048;-38
2021/12/11 03:47:22;;;;;;;26.58;14.27;;;-2.30;99.90;;;;;;5082386;28;20163;-38
2021/12/11 03:49:48;;;;;;;23.30;13.27;;;-2.30;99.90;;;;;;5048711;28;20072;-38
2021/12/11 03:52:15;;;;;;;28.67;14.50;;;-2.30;99.90;;;;;;5050677;28;20071;-38
2021/12/11 03:54:44;;;;;;;28.15;15.32;;;-2.30;99.90;;;;;;5049111;28;20049;-39
2021/12/11 03:57:15;;;;;;;31.83;16.08;;;-2.20;99.90;;;;;;5050373;28;20428;-38
2021/12/11 03:59:47;;;;;;;31.88;16.85;;;-2.20;99.90;;;;;;5065638;28;20076;-39
2021/12/11 04:02:18;;;;;;;32.22;16.10;;;-2.10;99.90;;;;;;5049976;28;20045;-38
2021/12/11 04:04:51;;;;;;;32.13;16.08;;;-2.10;99.90;;;;;;5049786;28;20040;-38
2021/12/11 04:07:21;;;;;;;30.70;15.25;;;-2.10;99.90;;;;;;5061378;28;20060;-38
2021/12/11 04:09:47;;;;;;;28.15;14.90;;;-2.20;99.90;;;;;;5050043;28;20549;-38
2021/12/11 04:12:15;;;;;;;30.88;14.52;;;-2.20;99.90;;;;;;5049926;28;20453;-38
2021/12/11 04:14:46;;;;;;;24.35;13.45;;;-2.20;99.90;;;;;;5055157;28;20051;-39
2021/12/11 04:17:14;;;;;;;31.95;14.90;;;-2.30;99.90;;;;;;5082006;28;20049;-38
2021/12/11 04:19:41;;;;;;;27.77;14.35;;;-2.40;99.90;;;;;;5097486;28;20040;-38
2021/12/11 04:22:07;;;;;;;25.42;13.52;;;-2.40;99.90;;;;;;5060702;28;20041;-38
2021/12/11 04:24:35;;;;;;;24.42;13.70;;;-2.50;99.90;;;;;;5065269;28;20044;-39
2021/12/11 04:27:04;;;;;;;26.10;13.55;;;-2.50;99.90;;;;;;5048401;28;20045;-39
2021/12/11 04:29:30;;;;;;;25.25;13.27;;;-2.50;99.90;;;;;;5048577;28;20052;-38
2021/12/11 04:32:00;;;;;;;28.05;14.05;;;-2.50;99.90;;;;;;5048634;28;20037;-38
2021/12/11 04:34:26;;;;;;;27.52;14.23;;;-2.50;99.90;;;;;;5048443;28;20142;-38
2021/12/11 04:37:02;;;;;;;22.25;11.93;;;-2.50;99.90;;;;;;5049858;28;20140;-38
2021/12/11 04:39:34;;;;;;;23.58;12.50;;;-2.50;99.90;;;;;;5078957;28;20033;-38
2021/12/11 04:42:10;;;;;;;23.15;11.80;;;-2.50;99.90;;;;;;5044343;28;20102;-38
2021/12/11 04:44:41;;;;;;;22.42;11.68;;;-2.60;99.90;;;;;;5068295;28;20090;-38
2021/12/11 04:47:15;;;;;;;23.48;12.23;;;-2.60;99.90;;;;;;5069536;28;20040;-38
2021/12/11 04:49:54;;;;;;;22.85;12.25;;;-2.60;99.90;;;;;;5068309;28;20101;-38
2021/12/11 04:52:34;;;;;;;21.17;11.57;;;-2.70;99.90;;;;;;5056068;28;20048;-38
2021/12/11 05:01:10;;;;;;;25.17;12.15;;;-2.70;99.90;;;;;;5068049;28;20127;-38
2021/12/11 05:03:25;;;;;;;26.73;12.68;;;-2.70;99.90;;;;;;5061970;28;20583;-38
2021/12/11 05:10:58;;;;;;;23.83;12.30;;;-2.50;99.90;;;;;;5072036;28;20056;-38
2021/12/11 05:13:26;;;;;;;22.85;13.13;;;-2.50;99.90;;;;;;5059891;28;20128;-38
2021/12/11 05:15:55;;;;;;;24.40;12.32;;;-2.40;99.90;;;;;;5068380;28;20045;-38
2021/12/11 05:18:24;;;;;;;26.88;13.77;;;-2.40;99.90;;;;;;5053291;28;20112;-38
2021/12/11 05:20:54;;;;;;;27.55;14.52;;;-2.40;99.90;;;;;;5063672;28;20048;-38
2021/12/11 05:23:21;;;;;;;28.17;14.75;;;-2.30;99.90;;;;;;5092131;28;20048;-38
2021/12/11 05:25:47;;;;;;;27.33;15.35;;;-2.30;99.90;;;;;;5054857;28;20048;-38
2021/12/11 05:28:13;;;;;;;28.50;14.00;;;-2.30;99.90;;;;;;5049522;28;20057;-38
2021/12/11 05:30:44;;;;;;;33.50;16.00;;;-2.20;99.90;;;;;;5035963;28;20072;-38
2021/12/11 05:33:10;;;;;;;38.03;17.00;;;-2.20;99.90;;;;;;5072370;28;20398;-39
2021/12/11 05:35:39;;;;;;;34.03;16.10;;;-2.10;99.90;;;;;;5071471;28;20098;-38
2021/12/11 05:38:10;;;;;;;33.67;17.33;;;-2.10;99.90;;;;;;5066164;28;20060;-38
2021/12/11 05:40:39;;;;;;;30.85;16.85;;;-2.10;99.90;;;;;;5085837;28;20043;-38
2021/12/11 05:43:06;;;;;;;32.00;15.43;;;-2.00;99.90;;;;;;5071757;28;20040;-39
2021/12/11 05:45:32;;;;;;;35.50;16.63;;;-2.00;99.90;;;;;;5054619;28;20510;-38
2021/12/11 05:47:59;;;;;;;38.38;18.80;;;-2.00;99.90;;;;;;5072894;28;20045;-39
2021/12/11 05:50:38;;;;;;;39.58;18.13;;;-2.00;99.90;;;;;;5071268;28;20487;-39
2021/12/11 05:53:04;;;;;;;39.55;19.35;;;-1.90;99.90;;;;;;5044562;28;20056;-39
2021/12/11 05:55:31;;;;;;;40.25;19.00;;;-1.90;99.90;;;;;;5067718;28;20040;-38
2021/12/11 05:58:00;;;;;;;39.97;20.63;;;-1.80;99.90;;;;;;5070833;28;20068;-38
2021/12/11 06:00:34;;;;;;;45.60;20.02;;;-1.80;99.90;;;;;;5070850;28;20182;-39
2021/12/11 06:03:02;;;;;;;44.22;20.80;;;-1.70;99.90;;;;;;5062191;28;20421;-39
2021/12/11 06:05:28;;;;;;;48.85;20.83;;;-1.70;99.90;;;;;;5070932;28;20048;-38
2021/12/11 06:07:56;;;;;;;44.45;22.60;;;-1.70;99.90;;;;;;5072678;28;20048;-39
2021/12/11 06:10:24;;;;;;;;;;;-1.60;99.90;;;;;;5058640;28;20134;-39
2021/12/11 06:12:55;;;;;;;44.67;20.98;;;-1.60;99.90;;;;;;5072187;28;20268;-39
2021/12/11 06:15:21;;;;;;;50.60;22.88;;;-1.50;99.90;;;;;;5047197;28;20056;-39
2021/12/11 06:17:48;;;;;;;41.45;21.05;;;-1.40;99.90;;;;;;5052040;28;20106;-39
2021/12/11 06:20:18;;;;;;;42.70;19.90;;;-1.50;99.90;;;;;;5050752;28;20048;-38
2021/12/11 06:22:46;;;;;;;53.95;20.98;;;-1.50;99.90;;;;;;5051858;28;20111;-39
2021/12/11 06:25:25;;;;;;;47.05;20.98;;;-1.50;99.90;;;;;;5057427;28;20198;-39
2021/12/11 06:27:51;;;;;;;46.95;22.63;;;-1.60;99.90;;;;;;5066560;28;20044;-39
2021/12/11 06:30:18;;;;;;;50.95;21.80;;;-1.40;99.90;;;;;;5061119;28;20124;-39
2021/12/11 06:32:46;;;;;;;46.47;21.83;;;-1.30;99.90;;;;;;5069819;28;20496;-39
2021/12/11 06:35:26;;;;;;;46.15;21.05;;;-1.40;99.90;;;;;;5054380;28;20056;-38
2021/12/11 06:37:52;;;;;;;44.25;20.50;;;-1.40;99.90;;;;;;5066759;28;20059;-39
2021/12/11 06:40:20;;;;;;;41.65;19.90;;;-1.40;99.90;;;;;;5051021;28;20039;-39
2021/12/11 06:42:46;;;;;;;42.10;19.42;;;-1.40;99.90;;;;;;5074770;28;20404;-39
2021/12/11 06:45:12;;;;;;;41.90;20.00;;;-1.40;99.90;;;;;;5058319;28;20049;-39
2021/12/11 06:48:06;;;;;;;38.70;19.73;;;-1.50;99.90;;;;;;5066610;28;20069;-39
2021/12/11 06:50:32;;;;;;;41.75;20.25;;;-1.50;99.90;;;;;;5052964;28;20040;-39
2021/12/11 06:53:03;;;;;;;42.72;19.88;;;-1.50;99.90;;;;;;5062429;28;20048;-38
2021/12/11 06:55:29;;;;;;;44.45;20.25;;;-1.50;99.90;;;;;;5049790;28;20110;-39
2021/12/11 06:57:54;;;;;;;44.60;20.50;;;-1.60;99.90;;;;;;5051258;28;20057;-39
2021/12/11 07:00:21;;;;;;;44.03;20.40;;;-1.60;99.90;;;;;;5033500;28;20045;-39
2021/12/11 07:02:48;;;;;;;44.70;22.15;;;-1.60;99.90;;;;;;5053163;28;20055;-39
2021/12/11 07:05:14;;;;;;;43.78;20.55;;;-1.70;99.90;;;;;;5050079;28;20129;-39
2021/12/11 07:07:42;;;;;;;43.03;20.48;;;-1.70;99.90;;;;;;5061703;28;20145;-39
2021/12/11 07:10:12;;;;;;;42.53;19.92;;;-1.70;99.90;;;;;;5051324;28;20150;-39
2021/12/11 07:12:38;;;;;;;44.03;21.02;;;-1.70;99.90;;;;;;5068406;28;20386;-39
2021/12/11 07:15:06;;;;;;;44.03;21.92;;;-1.70;99.90;;;;;;5062012;28;20044;-39
2021/12/11 07:17:32;;;;;;;45.38;20.88;;;-1.70;99.90;;;;;;5069659;28;20483;-39
2021/12/11 07:19:57;;;;;;;43.88;21.95;;;-1.70;99.90;;;;;;5068991;28;20075;-39
2021/12/11 07:22:24;;;;;;;39.78;19.88;;;-1.70;99.90;;;;;;5068860;28;20086;-39
2021/12/11 07:24:56;;;;;;;44.50;20.15;;;-1.70;99.90;;;;;;5063423;28;20053;-39
2021/12/11 07:27:22;;;;;;;39.28;20.20;;;-1.70;99.90;;;;;;5047414;28;20048;-39
2021/12/11 07:29:48;;;;;;;45.35;21.10;;;-1.70;99.90;;;;;;5051691;28;20090;-39
2021/12/11 07:32:14;;;;;;;43.55;20.17;;;-1.70;99.90;;;;;;5060475;28;20047;-39
2021/12/11 07:34:41;;;;;;;44.30;20.92;;;-1.70;99.90;;;;;;5065238;28;20045;-39
2021/12/11 07:37:07;;;;;;;47.40;21.47;;;-1.70;99.90;;;;;;5066519;28;20090;-39
2021/12/11 07:39:33;;;;;;;43.83;21.63;;;-1.70;99.90;;;;;;5062688;28;20068;-39
2021/12/11 07:42:00;;;;;;;43.47;20.48;;;-1.70;99.90;;;;;;5065442;28;20135;-39
2021/12/11 07:44:27;;;;;;;40.83;20.73;;;-1.70;99.90;;;;;;5045919;28;20048;-39
2021/12/11 07:46:55;;;;;;;43.00;20.03;;;-1.70;99.90;;;;;;5069557;28;20124;-39
2021/12/11 07:49:21;;;;;;;43.13;20.58;;;-1.70;99.90;;;;;;5065752;28;20041;-39
2021/12/11 07:51:50;;;;;;;53.85;22.85;;;-1.70;99.90;;;;;;5068654;28;20415;-39
2021/12/11 07:54:16;;;;;;;41.33;21.00;;;-1.70;99.90;;;;;;5068070;28;20040;-39
2021/12/11 07:56:42;;;;;;;50.70;21.90;;;-1.60;99.90;;;;;;5066777;28;20123;-39
2021/12/11 07:59:11;;;;;;;47.40;24.35;;;-1.70;99.90;;;;;;5064562;28;20048;-39
2021/12/11 08:01:42;;;;;;;47.42;25.40;;;-1.70;99.90;;;;;;5066356;28;20094;-39
2021/12/11 08:04:09;;;;;;;48.60;24.80;;;-1.60;99.90;;;;;;5064702;28;20042;-39
2021/12/11 08:06:36;;;;;;;54.65;27.33;;;-1.60;99.90;;;;;;5065106;28;20091;-39
2021/12/11 08:09:05;;;;;;;48.95;26.83;;;-1.60;99.90;;;;;;5067128;28;20052;-39
2021/12/11 08:11:31;;;;;;;46.45;24.15;;;-1.60;99.90;;;;;;5067563;28;20040;-39
2021/12/11 08:13:59;;;;;;;50.75;24.83;;;-1.50;99.90;;;;;;5047819;28;20057;-39
2021/12/11 08:16:33;;;;;;;48.22;23.13;;;-1.50;99.90;;;;;;5062671;28;20050;-39
2021/12/11 08:19:01;;;;;;;51.78;24.33;;;-1.50;99.90;;;;;;5048105;28;20037;-39
2021/12/11 08:21:27;;;;;;;50.85;24.75;;;-1.50;99.90;;;;;;5048038;28;20040;-39
2021/12/11 08:24:04;;;;;;;49.92;24.35;;;-1.40;99.90;;;;;;5059060;28;20098;-39
2021/12/11 08:26:31;;;;;;;52.00;24.50;;;-1.40;99.90;;;;;;5030895;28;20044;-39
2021/12/11 08:28:57;;;;;;;46.63;23.75;;;-2.10;99.90;;;;;;5081633;28;20597;-39
2021/12/11 08:31:24;;;;;;;50.50;23.08;;;-1.20;99.90;;;;;;5047771;28;20046;-39
2021/12/11 08:33:53;;;;;;;46.93;22.37;;;-1.20;99.90;;;;;;5048950;28;20460;-39
2021/12/11 08:36:20;;;;;;;51.33;23.48;;;-1.20;99.90;;;;;;5046278;28;20314;-39
2021/12/11 08:38:46;;;;;;;53.72;23.70;;;-1.20;99.90;;;;;;5024496;28;20060;-39
2021/12/11 08:41:17;;;;;;;49.60;23.40;;;-1.20;99.90;;;;;;5047764;28;20041;-39
2021/12/11 08:43:46;;;;;;;58.97;24.60;;;-1.10;99.90;;;;;;5046582;28;20049;-39
2021/12/11 08:46:23;;;;;;;49.67;23.08;;;-1.10;99.90;;;;;;5067720;28;20517;-39
2021/12/11 08:48:49;;;;;;;47.95;23.05;;;-1.00;99.90;;;;;;5068603;28;20990;-39
2021/12/11 08:51:23;;;;;;;53.00;25.27;;;-1.00;99.90;;;;;;5067205;28;20523;-39
2021/12/11 08:53:50;;;;;;;53.05;25.95;;;-0.90;99.90;;;;;;5066204;28;20343;-39
2021/12/11 08:56:17;;;;;;;48.20;24.35;;;-0.90;99.90;;;;;;5048476;28;20056;-39
2021/12/11 08:58:45;;;;;;;49.45;24.30;;;-0.80;99.90;;;;;;5063945;28;20106;-39
2021/12/11 09:01:19;;;;;;;54.83;25.77;;;-0.80;99.90;;;;;;5047887;28;20383;-39
2021/12/11 09:03:54;;;;;;;45.70;22.15;;;-0.70;99.90;;;;;;5040411;28;20463;-39
2021/12/11 09:06:46;;;;;;;50.65;24.58;;;-0.30;99.90;;;;;;5067860;28;20036;-39
2021/12/11 09:09:51;;;;;;;50.65;24.38;;;-0.60;99.90;;;;;;5058242;28;20140;-39
2021/12/11 09:12:52;;;;;;;52.45;25.05;;;-0.60;99.90;;;;;;5062351;28;20555;-39
2021/12/11 09:15:22;;;;;;;50.30;23.52;;;-0.50;99.90;;;;;;5057368;28;20049;-39
2021/12/11 09:18:05;;;;;;;53.95;24.40;;;-0.40;99.90;;;;;;5057761;28;20476;-39
2021/12/11 09:20:40;;;;;;;57.00;26.30;;;-0.40;99.90;;;;;;5056318;28;20059;-39
2021/12/11 09:23:15;;;;;;;54.13;26.40;;;-0.30;99.90;;;;;;5051118;28;20552;-39
2021/12/11 09:25:47;;;;;;;52.30;26.00;;;-0.30;99.90;;;;;;5048980;28;20128;-39
2021/12/11 09:28:21;;;;;;;61.17;26.77;;;-0.20;99.90;;;;;;5048928;28;20471;-39
2021/12/11 09:30:58;;;;;;;46.75;23.23;;;-0.20;99.90;;;;;;5084966;28;20056;-46
2021/12/11 09:33:29;;;;;;;47.88;23.52;;;-0.10;99.90;;;;;;5080708;28;20100;-39
2021/12/11 09:36:01;;;;;;;51.08;23.42;;;0.00;99.90;;;;;;5051982;28;20053;-39
2021/12/11 09:38:37;;;;;;;51.78;23.88;;;0.10;99.90;;;;;;5061591;28;21239;-39
2021/12/11 09:41:21;;;;;;;48.13;23.05;;;0.10;99.90;;;;;;5064055;28;20036;-39
2021/12/11 09:43:54;;;;;;;48.45;23.08;;;0.20;99.90;;;;;;5037263;28;20363;-40
2021/12/11 09:46:29;;;;;;;47.88;23.92;;;0.30;99.90;;;;;;5050487;28;20084;-40
2021/12/11 09:48:59;;;;;;;49.45;23.15;;;0.40;99.90;;;;;;5053312;28;20055;-40
2021/12/11 09:51:31;;;;;;;45.83;24.23;;;0.40;99.90;;;;;;5035394;28;20462;-40
2021/12/11 09:54:00;;;;;;;44.47;23.60;;;0.50;99.90;;;;;;5052225;28;20044;-40
2021/12/11 09:56:32;;;;;;;41.72;21.52;;;0.60;99.90;;;;;;5052210;28;20057;-41
2021/12/11 09:59:04;;;;;;;49.33;23.50;;;0.60;99.90;;;;;;5063057;28;20491;-41
2021/12/11 10:01:35;;;;;;;45.90;22.58;;;0.70;99.90;;;;;;5057452;28;20079;-41
2021/12/11 10:04:10;;;;;;;47.10;22.38;;;0.80;99.90;;;;;;5055190;28;20045;-41
2021/12/11 10:09:18;;;;;;;42.05;21.70;;;0.90;99.90;;;;;;5050561;28;20105;-41
2021/12/11 10:11:53;;;;;;;43.13;21.58;;;1.00;99.90;;;;;;5052616;28;20044;-41
2021/12/11 10:14:23;;;;;;;49.00;20.67;;;1.10;99.90;;;;;;5028211;28;20044;-41
2021/12/11 10:16:52;;;;;;;45.55;22.60;;;1.20;99.90;;;;;;5070473;28;20055;-40
2021/12/11 10:19:20;;;;;;;39.60;20.15;;;1.30;99.90;;;;;;5069673;28;20046;-41
2021/12/11 10:21:50;;;;;;;;;;;1.30;99.90;;;;;;5056402;28;20037;-41
2021/12/11 10:24:20;;;;;;;38.55;17.77;;;1.40;99.90;;;;;;5061552;28;19917;-40
2021/12/11 10:26:50;;;;;;;38.53;19.38;;;1.50;99.90;;;;;;5086116;28;20049;-40
2021/12/11 10:29:17;;;;;;;40.15;20.02;;;1.50;99.90;;;;;;5067998;28;20047;-40
2021/12/11 10:32:01;;;;;;;40.97;19.75;;;1.50;99.90;;;;;;5050483;28;20440;-41
2021/12/11 10:34:30;;;;;;;40.10;20.10;;;1.60;99.90;;;;;;5068468;28;20044;-40
2021/12/11 10:37:27;;;;;;;37.58;19.15;;;1.70;99.90;;;;;;5068784;28;20119;-40
2021/12/11 10:39:57;;;;;;;35.88;18.75;;;1.80;99.90;;;;;;5080641;28;20482;-41
2021/12/11 10:42:23;;;;;;;36.83;18.15;;;1.90;99.90;;;;;;5053431;28;20049;-40
2021/12/11 10:44:54;;;;;;;41.05;19.05;;;1.90;99.90;;;;;;5069817;28;20040;-40
2021/12/11 10:47:25;;;;;;;34.55;17.98;;;2.00;99.90;;;;;;5039133;28;20148;-41
2021/12/11 10:49:52;;;;;;;35.80;18.73;;;2.00;99.90;;;;;;5070106;28;20132;-41
2021/12/11 10:52:26;;;;;;;38.25;18.77;;;2.10;99.90;;;;;;5067933;28;20058;-41
2021/12/11 10:54:53;;;;;;;35.17;18.05;;;2.20;99.90;;;;;;5067111;28;20347;-41
2021/12/11 10:57:22;;;;;;;42.50;18.95;;;2.20;99.90;;;;;;5067743;28;20114;-41
2021/12/11 10:59:53;;;;;;;34.50;17.30;;;2.30;99.90;;;;;;5050456;28;20070;-41
2021/12/11 11:02:26;;;;;;;31.95;18.17;;;2.30;99.90;;;;;;5062170;28;20428;-41
2021/12/11 11:05:00;;;;;;;31.65;17.90;;;2.40;99.90;;;;;;5063345;28;20110;-41
2021/12/11 11:07:27;;;;;;;34.42;18.50;;;2.50;99.90;;;;;;5049308;28;20051;-41
2021/12/11 11:09:58;;;;;;;34.13;18.10;;;2.70;99.90;;;;;;5048275;28;20071;-41
2021/12/11 11:12:25;;;;;;;34.90;18.15;;;2.80;99.90;;;;;;5058801;28;20036;-42
2021/12/11 11:14:53;;;;;;;39.78;18.63;;;3.00;99.90;;;;;;5066714;28;20119;-42
2021/12/11 11:17:22;;;;;;;31.42;17.08;;;3.10;99.90;;;;;;5040626;28;20044;-42
2021/12/11 11:19:49;;;;;;;32.17;17.67;;;3.20;99.90;;;;;;5066001;28;20048;-42
2021/12/11 11:22:36;;;;;;;37.35;18.48;;;3.30;99.90;;;;;;5061357;28;20041;-43
2021/12/11 11:25:11;;;;;;;31.25;16.83;;;3.40;99.90;;;;;;5061666;28;20074;-41
2021/12/11 11:27:37;;;;;;;29.35;15.55;;;3.40;99.90;;;;;;5064933;28;20106;-42
2021/12/11 11:30:08;;;;;;;33.30;17.67;;;3.50;99.90;;;;;;5058765;28;20047;-43
2021/12/11 11:32:34;;;;;;;33.40;17.95;;;3.50;99.90;;;;;;5065801;28;20116;-42
2021/12/11 11:35:13;;;;;;;32.85;18.45;;;3.50;99.90;;;;;;5065774;28;20437;-43
2021/12/11 11:37:42;;;;;;;30.88;17.20;;;3.60;99.90;;;;;;5065176;28;20443;-42
2021/12/11 11:40:13;;;;;;;33.30;17.77;;;3.80;99.90;;;;;;5064433;28;20059;-42
2021/12/11 11:42:41;;;;;;;32.42;17.25;;;3.70;99.90;;;;;;5065444;28;20498;-42
2021/12/11 11:45:10;;;;;;;32.22;16.88;;;3.80;99.90;;;;;;5064781;28;20053;-43
2021/12/11 11:47:37;;;;;;;35.00;16.08;;;3.80;99.90;;;;;;5067028;28;20090;-43
2021/12/11 11:50:07;;;;;;;28.33;16.42;;;3.70;99.90;;;;;;5066053;28;20071;-43
2021/12/11 11:52:33;;;;;;;29.95;16.48;;;3.70;99.90;;;;;;5068729;28;20399;-42
2021/12/11 11:55:02;;;;;;;30.27;17.30;;;3.70;99.90;;;;;;5066201;28;20355;-42
2021/12/11 11:57:33;;;;;;;31.92;16.67;;;3.60;99.90;;;;;;5066500;28;20417;-42
2021/12/11 12:00:03;;;;;;;26.88;16.67;;;3.60;99.90;;;;;;5067254;28;20040;-43
2021/12/11 12:02:31;;;;;;;45.63;16.85;;;3.60;99.90;;;;;;5066609;28;20498;-42
2021/12/11 12:05:01;;;;;;;29.90;16.90;;;3.70;99.90;;;;;;5049489;28;20119;-42
2021/12/11 12:07:29;;;;;;;30.90;16.77;;;3.70;99.90;;;;;;5066057;28;20123;-43
2021/12/11 12:10:01;;;;;;;27.35;16.85;;;3.70;99.90;;;;;;5049934;28;20051;-43
2021/12/11 12:12:27;;;;;;;28.92;16.33;;;3.80;99.90;;;;;;5066139;28;20167;-42
2021/12/11 12:14:57;;;;;;;29.50;16.88;;;3.80;99.90;;;;;;5064287;28;20040;-42
2021/12/11 12:17:26;;;;;;;28.35;15.75;;;3.90;99.90;;;;;;5051198;28;20115;-42
2021/12/11 12:19:53;;;;;;;28.98;15.88;;;3.90;99.90;;;;;;5053454;28;20072;-41
2021/12/11 12:22:24;;;;;;;28.38;15.80;;;3.90;99.90;;;;;;5048468;28;20079;-41
2021/12/11 12:24:52;;;;;;;33.05;17.25;;;4.00;99.90;;;;;;5048113;28;20044;-42
2021/12/11 12:27:22;;;;;;;27.77;16.20;;;4.00;99.90;;;;;;5059124;28;20052;-42
2021/12/11 12:29:49;;;;;;;28.25;15.98;;;4.00;99.90;;;;;;5054212;28;20102;-42
2021/12/11 12:32:22;;;;;;;29.05;15.45;;;4.00;99.90;;;;;;5050807;28;20055;-41
2021/12/11 12:34:50;;;;;;;28.13;16.58;;;4.00;99.90;;;;;;5059373;28;20643;-43
2021/12/11 12:37:17;;;;;;;29.17;16.27;;;4.10;99.90;;;;;;5048193;28;20565;-42
2021/12/11 12:39:48;;;;;;;26.23;16.58;;;4.10;99.90;;;;;;5046437;28;20045;-42
2021/12/11 12:42:29;;;;;;;26.38;16.33;;;4.10;99.90;;;;;;5060716;28;20553;-42
2021/12/11 12:45:21;;;;;;;30.92;17.90;;;4.10;99.90;;;;;;5067327;28;20059;-44
2021/12/11 12:48:05;;;;;;;30.95;15.82;;;4.10;99.90;;;;;;5049366;28;20044;-43
2021/12/11 12:50:53;;;;;;;26.90;15.90;;;4.10;99.90;;;;;;5065130;28;20141;-41
2021/12/11 12:53:22;;;;;;;31.85;16.20;;;3.90;99.90;;;;;;5065009;28;20233;-42
2021/12/11 12:55:56;;;;;;;28.42;16.20;;;3.90;99.90;;;;;;5063324;28;20048;-42
2021/12/11 12:58:36;;;;;;;25.33;16.27;;;3.90;99.90;;;;;;5063420;28;20406;-42
2021/12/11 13:01:22;;;;;;;29.85;16.40;;;3.90;99.90;;;;;;5045672;28;20047;-42
2021/12/11 13:03:50;;;;;;;28.33;15.60;;;4.00;99.90;;;;;;5074041;28;20099;-42